Time;durP1;ratioP1;P1;durP2;ratioP2;P2;SDS_P1;SDS_P2;PMS_P1;PMS_P2;Temp;Humidity;BMP_temperature;BMP_pressure;BME280_temperature;BME280_humidity;BME280_pressure;Samples;Min_cycle;Max_cycle;Signal;HPM_P1;HPM_P2
2023/12/19 00:01:02;;;;;;;31.83;20.33;;;6.00;99.90;;;;;;5013265;28;20629;-84
2023/12/19 00:03:28;;;;;;;33.37;21.37;;;6.00;99.90;;;;;;5013426;28;20170;-83
2023/12/19 00:05:54;;;;;;;31.47;19.33;;;6.00;99.90;;;;;;5014689;28;20166;-83
2023/12/19 00:08:19;;;;;;;28.37;19.70;;;5.90;99.90;;;;;;5013350;28;20216;-84
2023/12/19 00:10:45;;;;;;;29.80;18.97;;;6.00;99.90;;;;;;5014298;28;20209;-85
2023/12/19 00:13:11;;;;;;;32.90;20.30;;;6.00;99.90;;;;;;5013407;28;20167;-83
2023/12/19 00:15:37;;;;;;;32.73;20.60;;;6.00;99.90;;;;;;5013401;28;20309;-84
2023/12/19 00:18:03;;;;;;;32.37;20.17;;;6.00;99.90;;;;;;5013129;28;20174;-82
2023/12/19 00:20:29;;;;;;;30.40;21.67;;;5.90;99.90;;;;;;5013140;28;20190;-84
2023/12/19 00:22:55;;;;;;;28.77;20.10;;;5.90;99.90;;;;;;5013010;28;20203;-84
2023/12/19 00:25:23;;;;;;;34.40;20.63;;;5.90;99.90;;;;;;5012884;28;20202;-83
2023/12/19 00:27:49;;;;;;;28.63;20.90;;;5.90;99.90;;;;;;5013159;28;20181;-83
2023/12/19 00:30:15;;;;;;;29.80;20.33;;;5.90;99.90;;;;;;5013197;28;20222;-84
2023/12/19 00:32:41;;;;;;;31.77;21.60;;;5.80;99.90;;;;;;5012877;28;20228;-84
2023/12/19 00:35:07;;;;;;;30.57;22.00;;;5.90;99.90;;;;;;5012839;28;20297;-84
2023/12/19 00:37:32;;;;;;;31.97;21.83;;;5.90;99.90;;;;;;5012955;28;20642;-84
2023/12/19 00:39:58;;;;;;;29.10;19.63;;;6.00;99.90;;;;;;5025762;28;20258;-82
2023/12/19 00:42:24;;;;;;;35.77;22.90;;;5.90;99.90;;;;;;5033583;28;20166;-83
2023/12/19 00:44:49;;;;;;;36.30;22.90;;;6.00;99.90;;;;;;5015393;28;20205;-84
2023/12/19 00:47:16;;;;;;;35.37;22.20;;;5.90;99.90;;;;;;5012372;28;20585;-84
2023/12/19 00:49:43;;;;;;;33.73;22.27;;;6.00;99.90;;;;;;5012813;28;20174;-83
2023/12/19 00:52:08;;;;;;;28.80;20.77;;;5.90;99.90;;;;;;5012562;28;20175;-84
2023/12/19 00:54:34;;;;;;;33.57;23.27;;;6.00;99.90;;;;;;5013151;28;20623;-85
2023/12/19 00:57:00;;;;;;;31.60;22.13;;;5.90;99.90;;;;;;5013114;28;20193;-84
2023/12/19 00:59:25;;;;;;;38.30;22.13;;;5.90;99.90;;;;;;5012686;28;20181;-84
2023/12/19 01:01:51;;;;;;;34.90;23.33;;;5.90;99.90;;;;;;5028943;28;20197;-84
2023/12/19 01:04:19;;;;;;;33.87;23.00;;;6.00;99.90;;;;;;5012584;28;20174;-84
2023/12/19 01:06:45;;;;;;;33.27;21.43;;;5.90;99.90;;;;;;5013480;28;20170;-84
2023/12/19 01:09:11;;;;;;;34.13;23.50;;;5.90;99.90;;;;;;5012543;28;20176;-84
2023/12/19 01:11:36;;;;;;;33.83;23.53;;;5.90;99.90;;;;;;5012594;28;20654;-83
2023/12/19 01:14:02;;;;;;;36.37;23.30;;;5.90;99.90;;;;;;5012417;28;20562;-83
2023/12/19 01:16:28;;;;;;;35.33;23.50;;;5.80;99.90;;;;;;5012372;28;20265;-83
2023/12/19 01:18:54;;;;;;;31.07;22.53;;;5.80;99.90;;;;;;5012453;28;20641;-84
2023/12/19 01:21:20;;;;;;;35.70;23.77;;;5.80;99.90;;;;;;5012156;28;20221;-83
2023/12/19 01:23:46;;;;;;;34.73;23.50;;;5.80;99.90;;;;;;5012299;28;20263;-84
2023/12/19 01:26:11;;;;;;;35.67;25.10;;;5.90;99.90;;;;;;5012274;28;20198;-84
2023/12/19 01:28:40;;;;;;;37.10;23.47;;;5.90;99.90;;;;;;5012525;28;20224;-84
2023/12/19 01:31:06;;;;;;;34.53;24.77;;;5.90;99.90;;;;;;5012109;28;20292;-83
2023/12/19 01:33:32;;;;;;;33.57;22.87;;;5.90;99.90;;;;;;5012169;28;20705;-85
2023/12/19 01:35:57;;;;;;;35.03;24.57;;;5.90;99.90;;;;;;5011806;28;20316;-83
2023/12/19 01:38:23;;;;;;;39.67;23.50;;;5.90;99.90;;;;;;5012524;28;20530;-83
2023/12/19 01:40:49;;;;;;;34.67;23.60;;;6.00;99.90;;;;;;5012265;28;20177;-84
2023/12/19 01:43:19;;;;;;;34.30;23.93;;;5.90;99.90;;;;;;5011909;28;20662;-83
2023/12/19 01:45:46;;;;;;;39.90;24.00;;;5.90;99.90;;;;;;5012369;28;20170;-85
2023/12/19 01:48:16;;;;;;;42.70;23.33;;;5.80;99.90;;;;;;5012201;28;20547;-85
2023/12/19 01:50:42;;;;;;;34.43;24.30;;;5.90;99.90;;;;;;5011913;28;20285;-84
2023/12/19 01:53:08;;;;;;;33.00;22.00;;;5.90;99.90;;;;;;5011742;28;20183;-84
2023/12/19 01:55:34;;;;;;;35.00;23.13;;;6.00;99.90;;;;;;5012069;28;20214;-84
2023/12/19 01:58:00;;;;;;;38.40;23.17;;;5.90;99.90;;;;;;5012411;28;20174;-83
2023/12/19 02:00:26;;;;;;;37.10;25.10;;;6.00;99.90;;;;;;5015802;28;20653;-84
2023/12/19 02:02:52;;;;;;;35.03;24.47;;;6.00;99.90;;;;;;5016091;28;20170;-84
2023/12/19 02:05:19;;;;;;;32.30;22.33;;;6.00;99.90;;;;;;5016635;28;20229;-83
2023/12/19 02:07:45;;;;;;;35.97;22.53;;;6.00;99.90;;;;;;5017099;28;20167;-84
2023/12/19 02:10:13;;;;;;;34.10;22.47;;;6.00;99.90;;;;;;5015612;28;20265;-84
2023/12/19 02:12:40;;;;;;;35.43;23.13;;;6.00;99.90;;;;;;5015742;28;20173;-83
2023/12/19 02:15:07;;;;;;;31.67;20.63;;;6.00;99.90;;;;;;5015442;28;20220;-84
2023/12/19 02:17:33;;;;;;;36.30;23.73;;;6.00;99.90;;;;;;5015577;28;20654;-85
2023/12/19 02:19:59;;;;;;;36.50;24.37;;;5.90;99.90;;;;;;5015305;28;20182;-83
2023/12/19 02:22:25;;;;;;;34.50;23.30;;;6.00;99.90;;;;;;5015612;28;20256;-84
2023/12/19 02:24:51;;;;;;;34.63;23.57;;;6.00;99.90;;;;;;5020376;28;20214;-84
2023/12/19 02:27:22;;;;;;;37.57;25.57;;;6.00;99.90;;;;;;5028826;28;20185;-86
2023/12/19 02:29:47;;;;;;;34.87;24.47;;;6.00;99.90;;;;;;5024967;28;20178;-83
2023/12/19 02:32:13;;;;;;;41.47;25.83;;;6.10;99.90;;;;;;5017139;28;20162;-84
2023/12/19 02:34:39;;;;;;;38.97;24.87;;;6.10;99.90;;;;;;5014927;28;20686;-83
2023/12/19 02:37:04;;;;;;;40.80;24.53;;;6.10;99.90;;;;;;5016387;28;20174;-84
2023/12/19 02:39:30;;;;;;;38.30;24.87;;;6.10;99.90;;;;;;5015322;28;20701;-83
2023/12/19 02:41:56;;;;;;;39.80;24.43;;;6.10;99.90;;;;;;5016748;28;20178;-84
2023/12/19 02:44:22;;;;;;;38.97;24.63;;;6.00;99.90;;;;;;5015361;28;20178;-84
2023/12/19 02:46:47;;;;;;;36.43;24.53;;;6.10;99.90;;;;;;5018948;28;20265;-84
2023/12/19 02:49:13;;;;;;;32.77;23.87;;;6.10;99.90;;;;;;5034367;28;20186;-83
2023/12/19 02:51:39;;;;;;;43.53;24.23;;;6.10;99.90;;;;;;5020375;28;20189;-83
2023/12/19 02:54:04;;;;;;;36.10;23.37;;;6.20;99.90;;;;;;5019636;28;20202;-84
2023/12/19 02:56:32;;;;;;;42.73;23.07;;;6.10;99.90;;;;;;5031808;28;20178;-85
2023/12/19 02:58:57;;;;;;;37.37;23.27;;;6.20;99.90;;;;;;5014988;28;20177;-84
2023/12/19 03:01:24;;;;;;;31.40;21.47;;;6.10;99.90;;;;;;5014965;28;20248;-83
2023/12/19 03:03:49;;;;;;;34.47;23.57;;;6.10;99.90;;;;;;5014624;28;20170;-83
2023/12/19 03:06:16;;;;;;;35.27;23.57;;;6.10;99.90;;;;;;5014634;28;20650;-84
2023/12/19 03:08:48;;;;;;;32.63;22.80;;;6.20;99.90;;;;;;5016495;28;20167;-85
2023/12/19 03:11:14;;;;;;;35.93;23.80;;;6.10;99.90;;;;;;5014643;28;20193;-83
2023/12/19 03:13:41;;;;;;;35.43;23.10;;;6.10;99.90;;;;;;5014922;28;20229;-84
2023/12/19 03:16:07;;;;;;;38.57;22.73;;;6.20;99.90;;;;;;5014509;28;20218;-83
2023/12/19 03:18:32;;;;;;;36.93;22.73;;;6.20;99.90;;;;;;5014453;28;20248;-83
2023/12/19 03:20:58;;;;;;;31.03;21.47;;;6.20;99.90;;;;;;5014423;28;20197;-84
2023/12/19 03:23:24;;;;;;;35.97;22.07;;;6.20;99.90;;;;;;5013894;28;20179;-84
2023/12/19 03:25:50;;;;;;;34.23;22.03;;;6.20;99.90;;;;;;5014559;28;20658;-84
2023/12/19 03:28:16;;;;;;;34.80;22.37;;;6.40;99.90;;;;;;5014482;28;20321;-84
2023/12/19 03:30:42;;;;;;;35.57;22.30;;;6.40;99.90;;;;;;5030749;28;20174;-84
2023/12/19 03:33:08;;;;;;;28.97;20.00;;;6.30;99.90;;;;;;5013902;28;20189;-83
2023/12/19 03:35:33;;;;;;;32.90;21.43;;;6.30;99.90;;;;;;5014071;28;20210;-84
2023/12/19 03:38:00;;;;;;;30.90;20.80;;;6.30;99.90;;;;;;5014139;28;20221;-83
2023/12/19 03:40:26;;;;;;;31.17;20.83;;;6.40;99.90;;;;;;5013942;28;20178;-84
2023/12/19 03:42:52;;;;;;;34.13;21.03;;;6.30;99.90;;;;;;5014017;28;20177;-84
2023/12/19 03:45:18;;;;;;;28.27;21.33;;;6.40;99.90;;;;;;5013982;28;20186;-82
2023/12/19 03:47:44;;;;;;;33.60;20.73;;;6.40;99.90;;;;;;5013730;28;20516;-85
2023/12/19 03:50:10;;;;;;;29.27;20.27;;;6.40;99.90;;;;;;5013875;28;20192;-83
2023/12/19 03:52:36;;;;;;;30.87;21.10;;;6.30;99.90;;;;;;5013811;28;20658;-84
2023/12/19 03:55:03;;;;;;;32.83;21.33;;;6.40;99.90;;;;;;5013597;28;20220;-83
2023/12/19 03:57:29;;;;;;;26.30;18.93;;;6.40;99.90;;;;;;5013847;28;20170;-84
2023/12/19 03:59:55;;;;;;;28.40;19.10;;;6.40;99.90;;;;;;5015325;28;20637;-84
2023/12/19 04:02:20;;;;;;;26.83;19.53;;;6.30;99.90;;;;;;5013117;28;20174;-84
2023/12/19 04:04:46;;;;;;;26.87;19.47;;;6.40;99.90;;;;;;5013646;28;20174;-83
2023/12/19 04:07:12;;;;;;;30.77;19.13;;;6.30;99.90;;;;;;5013382;28;20174;-84
2023/12/19 04:09:37;;;;;;;25.57;17.87;;;6.30;99.90;;;;;;5024912;28;20221;-84
2023/12/19 04:12:04;;;;;;;28.07;19.07;;;6.40;99.90;;;;;;5033410;28;20181;-84
2023/12/19 04:14:30;;;;;;;29.47;18.90;;;6.30;99.90;;;;;;5020317;28;20221;-83
2023/12/19 04:16:57;;;;;;;29.03;20.17;;;6.30;99.90;;;;;;5030256;28;20166;-83
2023/12/19 04:19:23;;;;;;;26.83;18.27;;;6.40;99.90;;;;;;5013466;28;20189;-84
2023/12/19 04:21:49;;;;;;;22.67;15.73;;;6.40;99.90;;;;;;5013102;28;20642;-83
2023/12/19 04:24:15;;;;;;;27.37;18.17;;;6.40;99.90;;;;;;5013142;28;20224;-83
2023/12/19 04:26:46;;;;;;;26.83;18.50;;;6.40;99.90;;;;;;5013029;28;20285;-84
2023/12/19 04:29:13;;;;;;;27.00;18.00;;;6.40;99.90;;;;;;5013071;28;20179;-84
2023/12/19 04:31:39;;;;;;;24.50;18.40;;;6.40;99.90;;;;;;5012634;28;20201;-84
2023/12/19 04:34:05;;;;;;;27.20;17.03;;;6.50;99.90;;;;;;5014065;28;20170;-82
2023/12/19 04:36:31;;;;;;;27.00;17.57;;;6.60;99.90;;;;;;5015087;28;20205;-83
2023/12/19 04:38:58;;;;;;;21.00;16.27;;;6.60;99.90;;;;;;5013606;28;20651;-83
2023/12/19 04:41:23;;;;;;;25.50;17.57;;;6.60;99.90;;;;;;5015657;28;20174;-83
2023/12/19 04:43:49;;;;;;;24.10;15.93;;;6.60;99.90;;;;;;5013766;28;20166;-83
2023/12/19 04:46:15;;;;;;;25.97;16.13;;;6.60;99.90;;;;;;5012773;28;20170;-84
2023/12/19 04:48:42;;;;;;;20.93;15.67;;;6.60;99.90;;;;;;5012616;28;20170;-83
2023/12/19 04:51:17;;;;;;;23.93;17.00;;;6.70;99.90;;;;;;5012615;28;20186;-84
2023/12/19 04:53:43;;;;;;;22.20;15.77;;;6.80;99.90;;;;;;5012547;28;20197;-84
2023/12/19 04:56:10;;;;;;;20.20;15.23;;;6.60;99.90;;;;;;5029219;28;20243;-83
2023/12/19 04:58:36;;;;;;;20.60;15.20;;;6.60;99.90;;;;;;5012698;28;20193;-83
2023/12/19 05:01:02;;;;;;;18.30;13.93;;;6.70;99.90;;;;;;5012481;28;20635;-84
2023/12/19 05:03:28;;;;;;;18.27;12.73;;;6.60;99.90;;;;;;5012389;28;20189;-84
2023/12/19 05:05:53;;;;;;;22.57;15.23;;;6.60;99.90;;;;;;5012781;28;20185;-83
2023/12/19 05:08:19;;;;;;;20.40;14.17;;;6.80;99.90;;;;;;5012238;28;20235;-83
2023/12/19 05:10:44;;;;;;;20.47;14.97;;;6.70;99.90;;;;;;5012282;28;20279;-83
2023/12/19 05:13:10;;;;;;;19.93;14.57;;;6.70;99.90;;;;;;5012021;28;20178;-83
2023/12/19 05:15:36;;;;;;;16.77;13.90;;;6.80;99.90;;;;;;5028737;28;20705;-82
2023/12/19 05:18:01;;;;;;;19.00;14.13;;;6.70;99.90;;;;;;5012296;28;20532;-83
2023/12/19 05:20:27;;;;;;;22.30;14.73;;;6.70;99.90;;;;;;5012275;28;20240;-83
2023/12/19 05:22:53;;;;;;;19.10;13.20;;;6.70;99.90;;;;;;5012319;28;20181;-82
2023/12/19 05:25:19;;;;;;;18.53;12.87;;;6.70;99.90;;;;;;5012809;28;20201;-83
2023/12/19 05:27:45;;;;;;;18.30;14.07;;;6.80;99.90;;;;;;5012259;28;20224;-84
2023/12/19 05:30:15;;;;;;;17.90;13.47;;;6.90;99.90;;;;;;5012275;28;20178;-83
2023/12/19 05:32:41;;;;;;;18.60;14.00;;;6.90;99.90;;;;;;5012843;28;20185;-83
2023/12/19 05:35:07;;;;;;;16.33;12.67;;;7.00;99.90;;;;;;5018434;28;20217;-85
2023/12/19 05:37:33;;;;;;;15.13;11.83;;;7.00;99.90;;;;;;5018716;28;20594;-83
2023/12/19 05:39:58;;;;;;;20.43;13.03;;;7.00;99.90;;;;;;5018469;28;20209;-82
2023/12/19 05:42:24;;;;;;;18.93;13.33;;;6.90;99.90;;;;;;5018429;28;20182;-84
2023/12/19 05:44:50;;;;;;;18.97;13.23;;;6.90;99.90;;;;;;5018146;28;20178;-83
2023/12/19 05:47:15;;;;;;;16.17;12.20;;;7.00;99.90;;;;;;5018084;28;20205;-84
2023/12/19 05:49:41;;;;;;;15.67;12.47;;;7.10;99.90;;;;;;5018421;28;20539;-84
2023/12/19 05:52:07;;;;;;;17.77;13.17;;;7.10;99.90;;;;;;5042432;28;20181;-83
2023/12/19 05:54:33;;;;;;;16.90;11.93;;;7.10;99.90;;;;;;5037514;28;20296;-83
2023/12/19 05:57:02;;;;;;;16.77;11.47;;;7.10;99.90;;;;;;5032790;28;20186;-83
2023/12/19 05:59:27;;;;;;;18.50;12.43;;;7.00;99.90;;;;;;5021595;28;20201;-83
2023/12/19 06:01:53;;;;;;;17.83;12.97;;;7.00;99.90;;;;;;5018301;28;20162;-84
2023/12/19 06:04:19;;;;;;;18.57;12.87;;;7.00;99.90;;;;;;5018111;28;20171;-84
2023/12/19 06:06:44;;;;;;;19.17;12.80;;;7.00;99.90;;;;;;5018251;28;20186;-84
2023/12/19 06:09:13;;;;;;;15.87;12.63;;;7.00;99.90;;;;;;5018068;28;20197;-84
2023/12/19 06:11:38;;;;;;;21.03;13.27;;;6.90;99.90;;;;;;5017887;28;20741;-84
2023/12/19 06:14:05;;;;;;;17.80;12.57;;;6.90;99.90;;;;;;5018376;28;20242;-84
2023/12/19 06:16:31;;;;;;;16.53;13.27;;;6.90;99.90;;;;;;5019485;28;20599;-84
2023/12/19 06:18:57;;;;;;;20.73;12.23;;;6.90;99.90;;;;;;5018148;28;20178;-83
2023/12/19 06:21:23;;;;;;;16.83;11.60;;;6.90;99.90;;;;;;5017994;28;20220;-85
2023/12/19 06:23:49;;;;;;;19.17;12.77;;;6.90;99.90;;;;;;5018038;28;20170;-83
2023/12/19 06:26:15;;;;;;;16.50;13.47;;;6.90;99.90;;;;;;5017947;28;20263;-83
2023/12/19 06:28:41;;;;;;;18.27;13.03;;;6.90;99.90;;;;;;5018572;28;20248;-84
2023/12/19 06:31:06;;;;;;;19.83;13.13;;;6.90;99.90;;;;;;5018180;28;20690;-83
2023/12/19 06:33:32;;;;;;;18.20;13.73;;;6.90;99.90;;;;;;5019238;28;20166;-85
2023/12/19 06:35:58;;;;;;;21.73;14.27;;;6.90;99.90;;;;;;5018615;28;20681;-84
2023/12/19 06:38:23;;;;;;;16.40;12.50;;;6.90;99.90;;;;;;5017707;28;20178;-83
2023/12/19 06:40:49;;;;;;;21.03;13.80;;;6.90;99.90;;;;;;5017466;28;20178;-83
2023/12/19 06:43:15;;;;;;;16.50;13.30;;;6.90;99.90;;;;;;5018406;28;20623;-84
2023/12/19 06:45:41;;;;;;;19.10;13.67;;;7.00;99.90;;;;;;5015606;28;20177;-85
2023/12/19 06:48:07;;;;;;;19.17;13.63;;;7.00;99.90;;;;;;5031439;28;20678;-84
2023/12/19 06:50:33;;;;;;;17.30;12.97;;;7.00;99.90;;;;;;5014485;28;20186;-84
2023/12/19 06:52:58;;;;;;;18.17;12.53;;;7.00;99.90;;;;;;5016015;28;20611;-85
2023/12/19 06:55:25;;;;;;;20.73;13.43;;;7.00;99.90;;;;;;5013872;28;20301;-85
2023/12/19 06:57:52;;;;;;;18.93;12.27;;;7.00;99.90;;;;;;5015992;28;20166;-84
2023/12/19 07:00:18;;;;;;;16.57;12.13;;;7.00;99.90;;;;;;5030945;28;20738;-83
2023/12/19 07:02:44;;;;;;;17.37;12.73;;;6.90;99.90;;;;;;5014694;28;20178;-84
2023/12/19 07:05:10;;;;;;;20.13;13.47;;;6.90;99.90;;;;;;5014049;28;20328;-85
2023/12/19 07:07:36;;;;;;;18.83;13.77;;;6.90;99.90;;;;;;5014107;28;20174;-84
2023/12/19 07:10:03;;;;;;;18.97;12.87;;;7.00;99.90;;;;;;5013523;28;20194;-85
2023/12/19 07:12:29;;;;;;;18.43;13.43;;;7.00;99.90;;;;;;5014184;28;20527;-84
2023/12/19 07:14:55;;;;;;;17.10;13.60;;;6.90;99.90;;;;;;5013603;28;20201;-84
2023/12/19 07:17:22;;;;;;;16.93;12.97;;;6.90;99.90;;;;;;5013816;28;20278;-85
2023/12/19 07:19:48;;;;;;;18.47;13.33;;;6.90;99.90;;;;;;5014194;28;20194;-84
2023/12/19 07:22:14;;;;;;;18.90;13.27;;;7.00;99.90;;;;;;5013711;28;20227;-84
2023/12/19 07:24:40;;;;;;;18.07;13.10;;;7.00;99.90;;;;;;5013722;28;20729;-83
2023/12/19 07:27:06;;;;;;;21.00;13.77;;;7.10;99.90;;;;;;5031354;28;20283;-84
2023/12/19 07:29:31;;;;;;;20.27;13.40;;;7.00;99.90;;;;;;5033580;28;20194;-84
2023/12/19 07:31:58;;;;;;;18.57;13.50;;;7.10;99.90;;;;;;5034030;28;20185;-84
2023/12/19 07:34:24;;;;;;;17.60;12.43;;;7.00;99.90;;;;;;5035605;28;20205;-85
2023/12/19 07:36:50;;;;;;;19.77;12.73;;;7.10;99.90;;;;;;5050685;28;20696;-82
2023/12/19 07:39:16;;;;;;;18.10;12.30;;;7.00;99.90;;;;;;5048806;28;20173;-84
2023/12/19 07:41:43;;;;;;;16.03;12.23;;;7.00;99.90;;;;;;5035543;28;20641;-84
2023/12/19 07:44:14;;;;;;;18.67;12.47;;;7.00;99.90;;;;;;5034341;28;20187;-85
2023/12/19 07:46:41;;;;;;;17.67;12.00;;;7.00;99.90;;;;;;5033213;28;20173;-85
2023/12/19 07:49:08;;;;;;;16.27;12.40;;;7.00;99.90;;;;;;5033796;28;20173;-85
2023/12/19 07:51:34;;;;;;;16.83;13.03;;;7.10;99.90;;;;;;5033392;28;20209;-86
2023/12/19 07:53:59;;;;;;;17.47;12.83;;;7.10;99.90;;;;;;5033353;28;20173;-84
2023/12/19 07:56:25;;;;;;;17.10;11.93;;;7.00;99.90;;;;;;5032893;28;20661;-87
2023/12/19 07:58:51;;;;;;;18.20;12.27;;;7.10;99.90;;;;;;5033347;28;20181;-85
2023/12/19 08:01:17;;;;;;;16.83;13.60;;;7.10;99.90;;;;;;5033201;28;20257;-85
2023/12/19 08:03:44;;;;;;;20.63;12.77;;;7.10;99.90;;;;;;5033269;28;20216;-83
2023/12/19 08:06:11;;;;;;;17.30;12.90;;;7.20;99.90;;;;;;5033241;28;20178;-84
2023/12/19 08:08:37;;;;;;;17.20;12.27;;;7.20;99.90;;;;;;5032766;28;20230;-84
2023/12/19 08:11:03;;;;;;;18.73;12.30;;;7.10;99.90;;;;;;5032939;28;20669;-85
2023/12/19 08:13:29;;;;;;;16.07;12.73;;;7.10;99.90;;;;;;5033352;28;20219;-85
2023/12/19 08:15:54;;;;;;;18.70;13.37;;;7.20;99.90;;;;;;5033435;28;20584;-86
2023/12/19 08:18:20;;;;;;;18.27;13.10;;;7.30;99.90;;;;;;5033211;28;20205;-85
2023/12/19 08:20:46;;;;;;;17.77;13.47;;;7.30;99.90;;;;;;5033094;28;20185;-84
2023/12/19 08:23:12;;;;;;;17.53;12.97;;;7.30;99.90;;;;;;5032868;28;20177;-85
2023/12/19 08:25:38;;;;;;;20.40;12.27;;;7.40;99.90;;;;;;5032880;28;20201;-84
2023/12/19 08:28:05;;;;;;;18.53;12.50;;;7.40;99.90;;;;;;5032860;28;20633;-85
2023/12/19 08:30:31;;;;;;;20.07;13.17;;;7.40;99.90;;;;;;5032631;28;20177;-85
2023/12/19 08:32:57;;;;;;;17.33;13.00;;;7.40;99.90;;;;;;5032772;28;20173;-85
2023/12/19 08:35:23;;;;;;;16.90;12.47;;;7.50;99.90;;;;;;5033137;28;20249;-86
2023/12/19 08:37:49;;;;;;;16.40;11.43;;;7.60;99.90;;;;;;5032557;28;20200;-85
2023/12/19 08:40:15;;;;;;;17.53;12.60;;;7.60;99.90;;;;;;5032539;28;20642;-86
2023/12/19 08:42:41;;;;;;;20.87;12.10;;;7.50;99.90;;;;;;5032845;28;20268;-86
2023/12/19 08:45:15;;;;;;;16.50;12.23;;;7.50;99.90;;;;;;5032495;28;20172;-87
2023/12/19 08:47:41;;;;;;;13.10;10.93;;;7.50;99.90;;;;;;5033636;28;20192;-84
2023/12/19 08:50:09;;;;;;;17.53;11.70;;;7.50;99.90;;;;;;5032262;28;20200;-84
2023/12/19 08:52:37;;;;;;;17.17;11.47;;;7.50;99.90;;;;;;5032103;28;20247;-85
2023/12/19 08:55:06;;;;;;;20.93;12.07;;;7.50;99.90;;;;;;5032219;28;20205;-85
2023/12/19 08:57:43;;;;;;;16.90;12.33;;;7.50;99.90;;;;;;5032214;28;20170;-87
2023/12/19 09:00:15;;;;;;;16.40;12.17;;;7.50;99.90;;;;;;5032589;28;20166;-85
2023/12/19 09:02:44;;;;;;;15.20;11.70;;;7.60;99.90;;;;;;5032362;28;20625;-86
2023/12/19 09:05:12;;;;;;;19.90;12.63;;;7.60;99.90;;;;;;5032353;28;20240;-87
2023/12/19 09:07:38;;;;;;;18.87;12.03;;;7.60;99.90;;;;;;5031709;28;20243;-85
2023/12/19 09:10:05;;;;;;;18.00;12.27;;;7.60;99.90;;;;;;5032184;28;20196;-85
2023/12/19 09:12:32;;;;;;;18.17;11.73;;;7.60;99.90;;;;;;5032313;28;20170;-87
2023/12/19 09:14:58;;;;;;;16.17;11.70;;;7.60;99.90;;;;;;5032355;28;20801;-86
2023/12/19 09:17:24;;;;;;;17.27;13.10;;;7.60;99.90;;;;;;5031943;28;20260;-84
2023/12/19 09:19:49;;;;;;;19.50;12.07;;;7.60;99.90;;;;;;5031677;28;20571;-84
2023/12/19 09:22:16;;;;;;;18.73;11.67;;;7.70;99.90;;;;;;5049522;28;20249;-85
2023/12/19 09:24:42;;;;;;;16.53;12.40;;;7.70;99.90;;;;;;5050365;28;20193;-85
2023/12/19 09:27:10;;;;;;;17.10;12.90;;;7.70;99.90;;;;;;5035339;28;20178;-86
2023/12/19 09:29:39;;;;;;;17.47;11.60;;;7.60;99.90;;;;;;5031734;28;20178;-85
2023/12/19 09:32:07;;;;;;;16.37;11.73;;;7.60;99.90;;;;;;5032350;28;20260;-87
2023/12/19 09:34:32;;;;;;;20.67;12.87;;;7.60;99.90;;;;;;5032253;28;20547;-88
2023/12/19 09:36:58;;;;;;;18.57;12.17;;;7.60;99.90;;;;;;5031747;28;20185;-85
2023/12/19 09:39:24;;;;;;;17.20;12.23;;;7.50;99.90;;;;;;5031980;28;20522;-84
2023/12/19 09:41:50;;;;;;;17.20;13.00;;;7.60;99.90;;;;;;5032054;28;20178;-87
2023/12/19 09:44:16;;;;;;;20.13;14.00;;;7.60;99.90;;;;;;5031885;28;20256;-85
2023/12/19 09:46:45;;;;;;;19.47;13.27;;;7.60;99.90;;;;;;5031959;28;20197;-86
2023/12/19 09:49:12;;;;;;;18.47;12.67;;;7.60;99.90;;;;;;5031282;28;20193;-86
2023/12/19 09:51:42;;;;;;;20.53;12.50;;;7.60;99.90;;;;;;5032000;28;20277;-86
2023/12/19 09:54:09;;;;;;;18.77;12.13;;;7.60;99.90;;;;;;5032171;28;20169;-86
2023/12/19 09:56:35;;;;;;;19.10;12.73;;;7.60;99.90;;;;;;5031904;28;20629;-85
2023/12/19 09:59:03;;;;;;;19.43;13.87;;;7.70;99.90;;;;;;5032765;28;20174;-86
2023/12/19 10:01:29;;;;;;;17.07;13.00;;;7.60;99.90;;;;;;5031965;28;20178;-86
2023/12/19 10:03:55;;;;;;;17.47;13.07;;;7.60;99.90;;;;;;5032004;28;20272;-86
2023/12/19 10:06:25;;;;;;;19.23;13.37;;;7.60;99.90;;;;;;5032127;28;20221;-86
2023/12/19 10:08:53;;;;;;;21.00;13.23;;;7.60;99.90;;;;;;5031387;28;20189;-87
2023/12/19 10:11:24;;;;;;;18.70;13.70;;;7.70;99.90;;;;;;5032788;28;20252;-87
2023/12/19 10:13:50;;;;;;;19.70;13.67;;;7.60;99.90;;;;;;5031529;28;20196;-85
2023/12/19 10:16:19;;;;;;;18.27;13.63;;;7.60;99.90;;;;;;5031582;28;20213;-87
2023/12/19 10:18:54;;;;;;;20.03;13.13;;;7.60;99.90;;;;;;5031579;28;20610;-87
2023/12/19 10:21:23;;;;;;;18.23;12.30;;;7.70;99.90;;;;;;5035665;28;20181;-87
2023/12/19 10:23:48;;;;;;;21.63;13.83;;;7.60;99.90;;;;;;5035515;28;20218;-86
2023/12/19 10:26:15;;;;;;;18.07;13.33;;;7.70;99.90;;;;;;5037052;28;20246;-87
2023/12/19 10:28:41;;;;;;;21.33;13.17;;;7.70;99.90;;;;;;5036003;28;20280;-86
2023/12/19 10:31:06;;;;;;;18.53;12.63;;;7.70;99.90;;;;;;5036772;28;20176;-86
2023/12/19 10:33:49;;;;;;;16.57;11.77;;;7.70;99.90;;;;;;5035764;28;20169;-86
2023/12/19 10:36:41;;;;;;;18.13;12.67;;;7.70;99.90;;;;;;5035835;28;20259;-85
2023/12/19 10:39:07;;;;;;;20.03;12.33;;;7.70;99.90;;;;;;5031410;28;20181;-87
2023/12/19 10:41:36;;;;;;;17.10;11.40;;;7.70;99.90;;;;;;5035180;28;20174;-85
2023/12/19 10:44:02;;;;;;;18.27;12.80;;;7.70;99.90;;;;;;5035049;28;20173;-87
2023/12/19 10:46:30;;;;;;;15.47;11.77;;;7.70;99.90;;;;;;5034636;28;20272;-86
2023/12/19 10:49:00;;;;;;;18.27;12.10;;;7.70;99.90;;;;;;5035325;28;20236;-86
2023/12/19 10:51:41;;;;;;;16.57;12.37;;;7.80;99.90;;;;;;5034723;28;20182;-85
2023/12/19 10:54:15;;;;;;;18.90;12.00;;;7.80;99.90;;;;;;5035215;28;20230;-86
2023/12/19 10:57:05;;;;;;;16.77;12.17;;;7.90;99.90;;;;;;5046199;28;20245;-87
2023/12/19 10:59:33;;;;;;;16.17;11.17;;;7.90;99.90;;;;;;5049193;28;20176;-87
2023/12/19 11:02:32;;;;;;;15.97;11.10;;;7.90;99.90;;;;;;5046880;28;20239;-86
2023/12/19 11:05:42;;;;;;;14.97;11.50;;;7.90;99.90;;;;;;5019877;28;20256;-86
2023/12/19 11:08:15;;;;;;;16.70;10.53;;;7.90;99.90;;;;;;5014662;28;20196;-86
2023/12/19 11:10:45;;;;;;;15.83;11.43;;;7.90;99.90;;;;;;5033980;28;20213;-85
2023/12/19 11:13:14;;;;;;;18.27;11.73;;;7.90;99.90;;;;;;5034547;28;20210;-86
2023/12/19 11:15:47;;;;;;;16.23;12.43;;;7.90;99.90;;;;;;5033614;28;20224;-86
2023/12/19 11:18:39;;;;;;;16.63;11.80;;;8.00;99.90;;;;;;5033879;28;20169;-86
2023/12/19 11:21:45;;;;;;;17.70;12.27;;;7.90;99.90;;;;;;5034309;28;20212;-86
2023/12/19 11:24:24;;;;;;;16.57;10.80;;;8.00;99.90;;;;;;4995655;28;20199;-85
2023/12/19 11:27:00;;;;;;;15.07;10.90;;;8.00;99.90;;;;;;5033918;28;20177;-86
2023/12/19 11:29:50;;;;;;;15.73;11.70;;;7.80;99.90;;;;;;5034055;28;20184;-87
2023/12/19 11:32:28;;;;;;;14.33;10.80;;;8.00;99.90;;;;;;5032846;28;20176;-86
2023/12/19 11:35:14;;;;;;;13.50;10.63;;;8.00;99.90;;;;;;5034387;28;20583;-87
2023/12/19 11:37:44;;;;;;;15.50;11.80;;;8.20;99.90;;;;;;5033539;28;20240;-85
2023/12/19 11:40:37;;;;;;;14.67;11.23;;;8.10;99.90;;;;;;5033967;28;20201;-86
2023/12/19 11:43:03;;;;;;;15.07;10.80;;;8.10;99.90;;;;;;5033707;28;20177;-86
2023/12/19 11:45:28;;;;;;;15.97;11.27;;;8.10;99.90;;;;;;5033642;28;20173;-86
2023/12/19 11:47:55;;;;;;;15.77;10.63;;;8.10;99.90;;;;;;5033172;28;20170;-85
2023/12/19 11:50:39;;;;;;;15.93;11.40;;;8.10;99.90;;;;;;5033753;28;20177;-86
2023/12/19 11:53:08;;;;;;;15.63;11.57;;;8.20;99.90;;;;;;5034312;28;20178;-85
2023/12/19 11:55:35;;;;;;;15.57;11.67;;;8.20;99.90;;;;;;5033829;28;20255;-85
2023/12/19 11:58:11;;;;;;;16.17;11.67;;;8.20;99.90;;;;;;5033364;28;20664;-85
2023/12/19 12:00:37;;;;;;;18.73;12.27;;;8.30;99.90;;;;;;5033410;28;20633;-85
2023/12/19 12:03:09;;;;;;;17.73;12.77;;;8.30;99.90;;;;;;5033277;28;20184;-86
2023/12/19 12:05:36;;;;;;;15.80;11.83;;;8.30;99.90;;;;;;5033279;28;20575;-86
2023/12/19 12:08:03;;;;;;;16.67;11.83;;;8.20;99.90;;;;;;5033032;28;20675;-86
2023/12/19 12:10:29;;;;;;;15.80;11.23;;;8.20;99.90;;;;;;5033067;28;20675;-85
2023/12/19 12:12:56;;;;;;;14.93;10.97;;;8.30;99.90;;;;;;5032936;28;20266;-85
2023/12/19 12:15:24;;;;;;;20.57;11.97;;;8.30;99.90;;;;;;5032740;28;20205;-86
2023/12/19 12:18:06;;;;;;;17.30;11.43;;;8.20;99.90;;;;;;5033243;28;20645;-85
2023/12/19 12:20:34;;;;;;;17.90;12.70;;;8.20;99.90;;;;;;5034002;28;20319;-86
2023/12/19 12:23:00;;;;;;;20.73;12.50;;;8.30;99.90;;;;;;5032765;28;20319;-86
2023/12/19 12:25:27;;;;;;;14.87;11.40;;;8.30;99.90;;;;;;5034148;28;20510;-84
2023/12/19 12:28:04;;;;;;;19.43;11.77;;;8.40;99.90;;;;;;5033289;28;20196;-85
2023/12/19 12:30:31;;;;;;;17.13;12.60;;;8.30;99.90;;;;;;5032890;28;20169;-85
2023/12/19 12:32:57;;;;;;;18.77;12.77;;;8.30;99.90;;;;;;5033814;28;20609;-85
2023/12/19 12:35:35;;;;;;;16.70;11.57;;;8.30;99.90;;;;;;5033388;28;20229;-85
2023/12/19 12:38:10;;;;;;;22.70;13.67;;;8.30;99.90;;;;;;5032476;28;20219;-85